createdAt,value
2018-01-17T00:00:06.609Z,2.90
2018-01-17T00:02:34.134Z,2.90
2018-01-17T00:05:02.414Z,2.90
2018-01-17T00:07:29.934Z,2.90
2018-01-17T00:09:57.459Z,2.90
2018-01-17T00:12:24.981Z,2.90
2018-01-17T00:14:53.267Z,2.80
2018-01-17T00:17:20.782Z,2.80
2018-01-17T00:19:48.307Z,2.90
2018-01-17T00:22:15.847Z,2.90
2018-01-17T00:24:43.358Z,2.90
2018-01-17T00:27:10.854Z,2.90
2018-01-17T00:29:39.135Z,2.90
2018-01-17T00:32:06.640Z,2.90
2018-01-17T00:34:34.164Z,2.90
2018-01-17T00:37:01.671Z,2.90
2018-01-17T00:39:29.171Z,2.90
2018-01-17T00:41:56.713Z,2.90
2018-01-17T00:44:24.996Z,2.90
2018-01-17T00:46:53.296Z,2.90
2018-01-17T00:49:20.875Z,2.90
2018-01-17T00:51:48.363Z,3.00
2018-01-17T00:54:15.872Z,2.90
2018-01-17T00:56:43.394Z,2.90
2018-01-17T00:59:11.667Z,2.90
2018-01-17T01:01:39.945Z,2.90
2018-01-17T01:04:08.218Z,2.90
2018-01-17T01:06:35.735Z,2.90
2018-01-17T01:09:03.255Z,2.90
2018-01-17T01:11:31.539Z,2.90
2018-01-17T01:13:59.038Z,2.90
2018-01-17T01:16:26.572Z,2.90
2018-01-17T01:18:54.106Z,2.80
2018-01-17T01:21:21.635Z,2.80
2018-01-17T01:23:49.169Z,2.80
2018-01-17T01:26:16.689Z,2.90
2018-01-17T01:28:44.208Z,2.90
2018-01-17T01:31:11.702Z,2.90
2018-01-17T01:33:39.219Z,2.90
2018-01-17T01:36:06.723Z,3.00
2018-01-17T01:38:34.241Z,3.00
2018-01-17T01:41:01.746Z,3.00
2018-01-17T01:43:29.267Z,3.00
2018-01-17T01:45:56.785Z,3.00
2018-01-17T01:48:24.317Z,3.00
2018-01-17T01:50:51.835Z,3.00
2018-01-17T01:53:19.355Z,3.00
2018-01-17T01:55:46.868Z,3.00
2018-01-17T01:58:15.167Z,3.00
2018-01-17T02:00:42.676Z,3.00
2018-01-17T02:03:10.199Z,3.00
2018-01-17T02:05:37.719Z,3.10
2018-01-17T02:08:06.009Z,3.00
2018-01-17T02:10:34.276Z,3.00
2018-01-17T02:13:02.556Z,3.10
2018-01-17T02:15:30.832Z,3.00
2018-01-17T02:17:59.125Z,3.00
2018-01-17T02:20:26.648Z,3.00
2018-01-17T02:22:54.165Z,3.00
2018-01-17T02:25:21.698Z,3.00
2018-01-17T02:27:49.348Z,3.00
2018-01-17T02:30:17.645Z,3.10
2018-01-17T02:32:45.147Z,3.00
2018-01-17T02:35:12.676Z,3.00
2018-01-17T02:37:40.178Z,2.90
2018-01-17T02:40:19.676Z,2.80
2018-01-17T02:42:47.205Z,2.70
2018-01-17T02:45:14.738Z,2.50
2018-01-17T02:47:43.025Z,2.10
2018-01-17T02:50:11.311Z,1.80
2018-01-17T02:52:38.814Z,1.80
2018-01-17T02:55:06.343Z,1.50
2018-01-17T02:57:33.852Z,1.30
2018-01-17T03:00:01.392Z,1.20
2018-01-17T03:02:28.904Z,1.00
2018-01-17T03:04:56.422Z,0.90
2018-01-17T03:07:23.938Z,0.80
2018-01-17T03:09:51.435Z,0.70
2018-01-17T03:12:18.960Z,0.70
2018-01-17T03:14:46.462Z,0.70
2018-01-17T03:17:13.979Z,0.60
2018-01-17T03:19:41.483Z,0.50
2018-01-17T03:22:09.778Z,0.40
2018-01-17T03:24:38.039Z,0.40
2018-01-17T03:27:05.546Z,0.40
2018-01-17T03:29:33.034Z,0.40
2018-01-17T03:32:00.539Z,0.50
2018-01-17T03:34:28.022Z,0.50
2018-01-17T03:36:55.549Z,0.50
2018-01-17T03:39:23.823Z,0.50
2018-01-17T03:41:52.111Z,0.60
2018-01-17T03:44:19.639Z,0.50
2018-01-17T03:46:47.146Z,0.60
2018-01-17T03:49:14.660Z,0.60
2018-01-17T03:51:42.951Z,0.60
2018-01-17T03:54:11.232Z,0.60
2018-01-17T03:56:39.520Z,0.60
2018-01-17T03:59:07.032Z,0.60
2018-01-17T04:01:34.523Z,0.60
2018-01-17T04:04:02.822Z,0.60
2018-01-17T04:06:30.328Z,0.60
2018-01-17T04:08:57.844Z,0.70
2018-01-17T04:11:25.353Z,0.70
2018-01-17T04:13:52.858Z,0.70
2018-01-17T04:16:20.374Z,0.80
2018-01-17T04:18:48.665Z,0.80
2018-01-17T04:21:16.922Z,0.80
2018-01-17T04:23:44.439Z,0.70
2018-01-17T04:26:11.954Z,0.80
2018-01-17T04:28:40.230Z,0.70
2018-01-17T04:31:08.508Z,0.70
2018-01-17T04:33:36.800Z,0.60
2018-01-17T04:36:04.308Z,0.60
2018-01-17T04:38:31.817Z,0.60
2018-01-17T04:40:59.332Z,0.60
2018-01-17T04:43:26.846Z,0.60
2018-01-17T04:45:54.350Z,0.60
2018-01-17T04:48:21.869Z,0.70
2018-01-17T04:50:49.381Z,0.70
2018-01-17T04:53:17.648Z,0.80
2018-01-17T04:55:45.957Z,0.90
2018-01-17T04:58:13.446Z,0.80
2018-01-17T05:00:40.986Z,0.80
2018-01-17T05:03:08.481Z,0.80
2018-01-17T05:05:35.989Z,0.80
2018-01-17T05:08:03.500Z,0.80
2018-01-17T05:10:31.041Z,0.80
2018-01-17T05:12:58.535Z,0.80
2018-01-17T05:15:26.046Z,0.80
2018-01-17T05:17:53.543Z,0.80
2018-01-17T05:20:21.077Z,0.90
2018-01-17T05:22:48.578Z,0.80
2018-01-17T05:25:16.880Z,0.80
2018-01-17T05:27:44.396Z,0.70
2018-01-17T05:30:11.931Z,0.80
2018-01-17T05:32:39.465Z,0.80
2018-01-17T05:35:07.009Z,0.80
2018-01-17T05:37:34.540Z,0.80
2018-01-17T05:40:02.837Z,0.80
2018-01-17T05:42:30.338Z,0.80
2018-01-17T05:44:57.865Z,0.80
2018-01-17T05:47:25.383Z,0.90
2018-01-17T05:49:52.886Z,1.00
2018-01-17T05:52:20.424Z,1.00
2018-01-17T05:54:47.934Z,0.90
2018-01-17T05:57:15.454Z,1.00
2018-01-17T05:59:42.972Z,1.00
2018-01-17T06:02:10.506Z,1.00
2018-01-17T06:04:38.028Z,1.10
2018-01-17T06:07:05.552Z,1.10
2018-01-17T06:09:33.073Z,1.10
2018-01-17T06:12:00.635Z,1.00
2018-01-17T06:14:28.133Z,1.00
2018-01-17T06:16:55.697Z,1.00
2018-01-17T06:19:23.209Z,1.00
2018-01-17T06:21:50.722Z,1.00
2018-01-17T06:24:18.981Z,1.00
2018-01-17T06:26:46.494Z,1.00
2018-01-17T06:29:13.986Z,1.00
2018-01-17T06:31:41.494Z,1.00
2018-01-17T06:34:09.009Z,1.00
2018-01-17T06:36:36.527Z,1.00
2018-01-17T06:39:04.044Z,1.10
2018-01-17T06:41:32.301Z,1.10
2018-01-17T06:43:59.834Z,1.10
2018-01-17T06:46:27.344Z,1.10
2018-01-17T06:48:54.875Z,1.20
2018-01-17T06:51:22.374Z,1.20
2018-01-17T06:53:49.921Z,1.10
2018-01-17T06:56:17.440Z,1.20
2018-01-17T06:58:44.962Z,1.10
2018-01-17T07:01:12.479Z,1.10
2018-01-17T07:03:40.771Z,1.10
2018-01-17T07:06:09.042Z,1.10
2018-01-17T07:08:36.577Z,1.10
2018-01-17T07:11:04.083Z,1.10
2018-01-17T07:13:31.760Z,1.10
2018-01-17T07:15:59.283Z,1.10
2018-01-17T07:18:27.585Z,1.20
2018-01-17T07:20:55.102Z,1.20
2018-01-17T07:23:23.389Z,1.10
2018-01-17T07:25:51.677Z,1.10
2018-01-17T07:28:19.207Z,1.10
2018-01-17T07:30:46.725Z,1.10
2018-01-17T07:33:14.240Z,1.10
2018-01-17T07:35:42.550Z,1.10
2018-01-17T07:38:10.066Z,1.10
2018-01-17T07:40:38.353Z,1.10
2018-01-17T07:43:06.642Z,1.10
2018-01-17T07:45:34.171Z,1.10
2018-01-17T07:48:01.692Z,1.00
2018-01-17T07:50:29.242Z,1.10
2018-01-17T07:52:57.527Z,1.10
2018-01-17T07:55:25.067Z,1.10
2018-01-17T07:57:52.589Z,1.20
2018-01-17T08:00:20.150Z,1.20
2018-01-17T08:02:47.669Z,1.20
2018-01-17T08:05:15.200Z,1.30
2018-01-17T08:07:42.697Z,1.30
2018-01-17T08:10:10.215Z,1.20
2018-01-17T08:12:37.744Z,1.30
2018-01-17T08:15:07.994Z,1.30
2018-01-17T08:17:36.198Z,1.30
2018-01-17T08:20:04.476Z,1.30
2018-01-17T08:22:32.016Z,1.30
2018-01-17T08:24:59.570Z,1.30
2018-01-17T08:27:27.085Z,1.30
2018-01-17T08:29:54.590Z,1.30
2018-01-17T08:32:22.106Z,1.30
2018-01-17T08:34:49.597Z,1.40
2018-01-17T08:37:17.141Z,1.40
2018-01-17T08:39:45.412Z,1.40
2018-01-17T08:42:12.931Z,1.40
2018-01-17T08:44:40.453Z,1.40
2018-01-17T08:47:08.746Z,1.40
2018-01-17T08:49:36.262Z,1.40
2018-01-17T08:52:03.805Z,1.40
2018-01-17T08:54:31.320Z,1.40
2018-01-17T08:56:58.857Z,1.40
2018-01-17T08:59:27.140Z,1.30
2018-01-17T09:01:55.441Z,1.30
2018-01-17T09:04:22.947Z,1.30
2018-01-17T09:06:50.490Z,1.30
2018-01-17T09:09:17.982Z,1.20
2018-01-17T09:11:45.491Z,1.10
2018-01-17T09:14:12.997Z,1.10
2018-01-17T09:16:40.543Z,1.20
2018-01-17T09:19:08.043Z,1.20
2018-01-17T09:21:35.555Z,1.10
2018-01-17T09:24:03.072Z,1.00
2018-01-17T09:26:30.579Z,1.00
2018-01-17T09:28:58.101Z,1.00
2018-01-17T09:31:25.626Z,1.00
2018-01-17T09:33:53.910Z,1.10
2018-01-17T09:36:21.437Z,1.00
2018-01-17T09:38:48.969Z,1.10
2018-01-17T09:41:16.498Z,1.00
2018-01-17T09:43:44.036Z,1.10
2018-01-17T09:46:12.324Z,1.20
2018-01-17T09:48:39.862Z,1.10
2018-01-17T09:51:08.134Z,1.20
2018-01-17T09:53:35.647Z,1.20
2018-01-17T09:56:03.927Z,1.30
2018-01-17T09:58:31.435Z,1.30
2018-01-17T10:00:59.702Z,1.40
2018-01-17T10:03:27.236Z,1.40
2018-01-17T10:05:54.743Z,1.40
2018-01-17T10:08:22.278Z,1.50
2018-01-17T10:10:49.795Z,1.50
2018-01-17T10:13:18.085Z,1.60
2018-01-17T10:15:45.625Z,1.60
2018-01-17T10:18:13.145Z,1.70
2018-01-17T10:20:41.453Z,1.80
2018-01-17T10:23:08.957Z,1.80
2018-01-17T10:25:36.496Z,1.90
2018-01-17T10:28:03.989Z,2.00
2018-01-17T10:30:32.306Z,2.10
2018-01-17T10:32:59.814Z,2.10
2018-01-17T10:35:27.330Z,2.10
2018-01-17T10:37:54.834Z,2.20
2018-01-17T10:40:22.351Z,2.20
2018-01-17T10:42:49.853Z,2.30
2018-01-17T10:45:18.170Z,2.40
2018-01-17T10:47:45.669Z,2.40
2018-01-17T10:50:13.217Z,2.40
2018-01-17T10:52:40.715Z,2.30
2018-01-17T10:55:09.008Z,2.10
2018-01-17T10:57:37.287Z,2.10
2018-01-17T11:00:04.803Z,2.10
2018-01-17T11:02:32.344Z,2.10
2018-01-17T11:04:59.860Z,2.10
2018-01-17T11:07:28.163Z,2.40
2018-01-17T11:09:55.673Z,2.40
2018-01-17T11:12:23.186Z,2.40
2018-01-17T11:14:50.686Z,2.50
2018-01-17T11:17:18.212Z,2.70
2018-01-17T11:19:46.493Z,2.60
2018-01-17T11:22:14.023Z,2.60
2018-01-17T11:24:41.553Z,2.50
2018-01-17T11:27:09.862Z,2.60
2018-01-17T11:29:37.355Z,2.60
2018-01-17T11:32:04.888Z,2.60
2018-01-17T11:34:32.390Z,2.30
2018-01-17T11:36:59.907Z,2.20
2018-01-17T11:39:27.433Z,2.30
2018-01-17T11:41:55.726Z,2.70
2018-01-17T11:44:23.231Z,2.70
2018-01-17T11:46:50.756Z,2.70
2018-01-17T11:49:18.254Z,2.70
2018-01-17T11:51:45.785Z,2.60
2018-01-17T11:54:13.304Z,2.60
2018-01-17T11:56:41.575Z,2.60
2018-01-17T11:59:09.091Z,2.60
2018-01-17T12:01:36.609Z,2.50
2018-01-17T12:04:04.915Z,2.50
2018-01-17T12:06:32.431Z,2.50
2018-01-17T12:09:00.713Z,2.50
2018-01-17T12:11:28.994Z,2.30
2018-01-17T12:13:57.306Z,2.20
2018-01-17T12:16:24.819Z,2.20
2018-01-17T12:18:52.516Z,2.30
2018-01-17T12:21:20.020Z,2.40
2018-01-17T12:23:57.758Z,2.50
2018-01-17T12:26:26.018Z,2.50
2018-01-17T12:28:53.532Z,2.50
2018-01-17T12:31:21.053Z,2.50
2018-01-17T12:33:49.346Z,2.50
2018-01-17T12:36:17.610Z,2.50
2018-01-17T12:38:45.900Z,2.50
2018-01-17T12:41:13.458Z,2.50
2018-01-17T12:43:40.966Z,2.60
2018-01-17T12:46:08.466Z,2.60
2018-01-17T12:48:36.786Z,2.30
2018-01-17T12:51:04.286Z,2.30
2018-01-17T12:53:31.813Z,2.30
2018-01-17T12:55:59.343Z,2.30
2018-01-17T12:58:26.865Z,2.30
2018-01-17T13:00:54.542Z,2.30
2018-01-17T13:03:22.821Z,2.30
2018-01-17T13:05:51.124Z,2.30
2018-01-17T13:08:18.624Z,2.30
2018-01-17T13:10:46.146Z,2.30
2018-01-17T13:13:13.655Z,2.30
2018-01-17T13:15:41.201Z,2.30
2018-01-17T13:18:08.718Z,2.30
2018-01-17T13:20:36.254Z,2.30
2018-01-17T13:23:04.535Z,2.30
2018-01-17T13:25:32.051Z,2.30
2018-01-17T13:27:59.590Z,2.30
2018-01-17T13:30:27.141Z,2.30
2018-01-17T13:32:54.658Z,2.30
2018-01-17T13:35:22.956Z,2.30
2018-01-17T13:37:50.480Z,2.30
2018-01-17T13:40:17.998Z,2.30
2018-01-17T13:42:45.542Z,2.20
2018-01-17T13:45:13.055Z,2.20
2018-01-17T13:47:40.576Z,2.20
2018-01-17T13:50:08.087Z,2.20
2018-01-17T13:52:35.641Z,2.20
2018-01-17T13:55:03.909Z,2.20
2018-01-17T13:57:31.437Z,2.20
2018-01-17T13:59:58.938Z,2.30
2018-01-17T14:02:27.241Z,2.40
2018-01-17T14:04:54.735Z,2.40
2018-01-17T14:07:22.252Z,2.30
2018-01-17T14:09:50.536Z,2.30
2018-01-17T14:12:18.050Z,2.20
2018-01-17T14:14:45.588Z,2.20
2018-01-17T14:17:13.115Z,2.30
2018-01-17T14:19:40.642Z,2.30
2018-01-17T14:22:08.182Z,2.20
2018-01-17T14:24:35.685Z,2.10
2018-01-17T14:27:03.218Z,2.20
2018-01-17T14:29:30.729Z,2.10
2018-01-17T14:31:58.259Z,1.80
2018-01-17T14:34:25.775Z,1.60
2018-01-17T14:36:53.290Z,1.40
2018-01-17T14:39:20.801Z,1.00
2018-01-17T14:41:48.299Z,1.10
2018-01-17T14:44:15.824Z,1.00
2018-01-17T14:46:43.391Z,1.00
2018-01-17T14:49:10.919Z,1.00
2018-01-17T14:51:38.410Z,0.90
2018-01-17T14:54:06.686Z,0.90
2018-01-17T14:56:34.954Z,1.00
2018-01-17T14:59:02.479Z,1.00
2018-01-17T15:01:29.988Z,1.20
2018-01-17T15:03:58.287Z,1.30
2018-01-17T15:06:25.799Z,1.30
2018-01-17T15:08:53.318Z,1.40
2018-01-17T15:11:20.852Z,1.50
2018-01-17T15:13:49.138Z,1.70
2018-01-17T15:16:16.657Z,1.70
2018-01-17T15:18:44.215Z,1.70
2018-01-17T15:21:11.735Z,1.80
2018-01-17T15:23:39.238Z,1.80
2018-01-17T15:26:06.759Z,1.90
2018-01-17T15:28:34.267Z,1.90
2018-01-17T15:31:02.569Z,1.90
2018-01-17T15:33:30.079Z,1.90
2018-01-17T15:35:57.599Z,2.00
2018-01-17T15:38:25.114Z,2.00
2018-01-17T15:40:52.631Z,2.00
2018-01-17T15:43:20.161Z,2.00
2018-01-17T15:45:47.731Z,2.00
2018-01-17T15:48:15.975Z,2.00
2018-01-17T15:50:44.274Z,2.00
2018-01-17T15:53:11.771Z,2.00
2018-01-17T15:55:39.309Z,2.10
2018-01-17T15:58:06.833Z,2.10
2018-01-17T16:00:35.141Z,2.10
2018-01-17T16:03:02.645Z,2.10
2018-01-17T16:05:30.181Z,2.10
2018-01-17T16:07:57.698Z,2.10
2018-01-17T16:10:25.217Z,2.10
2018-01-17T16:12:52.776Z,2.10
2018-01-17T16:15:20.295Z,2.00
2018-01-17T16:17:47.828Z,1.90
2018-01-17T16:20:16.114Z,1.80
2018-01-17T16:22:43.649Z,1.80
2018-01-17T16:25:11.162Z,1.70
2018-01-17T16:27:38.688Z,1.70
2018-01-17T16:30:06.973Z,1.60
2018-01-17T16:32:35.254Z,1.60
2018-01-17T16:35:02.751Z,1.60
2018-01-17T16:37:30.281Z,1.60
2018-01-17T16:39:57.771Z,1.60
2018-01-17T16:42:25.287Z,1.60
2018-01-17T16:44:53.572Z,1.60
2018-01-17T16:47:21.091Z,1.60
2018-01-17T16:49:48.600Z,1.60
2018-01-17T16:52:16.142Z,1.70
2018-01-17T16:54:44.432Z,1.90
2018-01-17T16:57:11.948Z,1.90
2018-01-17T16:59:39.502Z,1.90
2018-01-17T17:02:07.036Z,1.90
2018-01-17T17:04:34.556Z,2.00
2018-01-17T17:07:02.846Z,2.10
2018-01-17T17:09:30.385Z,2.10
2018-01-17T17:11:58.655Z,2.10
2018-01-17T17:14:26.188Z,2.10
2018-01-17T17:16:53.711Z,2.10
2018-01-17T17:19:21.236Z,2.20
2018-01-17T17:21:48.733Z,2.20
2018-01-17T17:24:16.255Z,2.10
2018-01-17T17:26:43.759Z,2.20
2018-01-17T17:29:11.282Z,2.10
2018-01-17T17:31:39.569Z,2.00
2018-01-17T17:34:07.854Z,2.00
2018-01-17T17:36:35.358Z,2.00
2018-01-17T17:39:02.895Z,2.00
2018-01-17T17:41:30.395Z,2.10
2018-01-17T17:43:57.905Z,2.20
2018-01-17T17:46:25.412Z,2.20
2018-01-17T17:48:52.937Z,2.20
2018-01-17T17:51:20.457Z,2.20
2018-01-17T17:53:47.964Z,2.30
2018-01-17T17:56:15.519Z,2.40
2018-01-17T17:58:43.032Z,2.40
2018-01-17T18:01:11.321Z,2.30
2018-01-17T18:03:38.823Z,2.30
2018-01-17T18:06:06.346Z,2.30
2018-01-17T18:08:33.866Z,2.30
2018-01-17T18:11:02.159Z,2.20
2018-01-17T18:13:29.674Z,2.20
2018-01-17T18:15:57.208Z,2.20
2018-01-17T18:18:24.725Z,2.30
2018-01-17T18:20:53.012Z,2.30
2018-01-17T18:23:20.549Z,2.30
2018-01-17T18:25:48.084Z,2.20
2018-01-17T18:28:15.590Z,2.20
2018-01-17T18:30:43.153Z,2.10
2018-01-17T18:33:10.649Z,2.10
2018-01-17T18:35:38.182Z,2.00
2018-01-17T18:38:05.685Z,2.00
2018-01-17T18:40:33.211Z,2.00
2018-01-17T18:43:00.726Z,2.00
2018-01-17T18:45:29.017Z,2.00
2018-01-17T18:47:56.548Z,2.00
2018-01-17T18:50:24.061Z,2.10
2018-01-17T18:52:51.587Z,2.20
2018-01-17T18:55:19.100Z,2.20
2018-01-17T18:57:46.625Z,2.30
2018-01-17T19:00:14.138Z,2.50
2018-01-17T19:02:41.672Z,2.50
2018-01-17T19:05:09.189Z,2.60
2018-01-17T19:07:36.722Z,2.60
2018-01-17T19:10:04.270Z,2.60
2018-01-17T19:12:31.779Z,2.50
2018-01-17T19:14:59.308Z,2.60
2018-01-17T19:17:27.574Z,2.60
2018-01-17T19:19:55.110Z,2.50
2018-01-17T19:22:22.601Z,2.50
2018-01-17T19:24:50.881Z,2.40
2018-01-17T19:27:19.147Z,2.50
2018-01-17T19:32:21.232Z,2.50
2018-01-17T19:34:48.743Z,2.50
2018-01-17T19:37:16.247Z,2.50
2018-01-17T19:39:44.607Z,2.60
2018-01-17T19:42:12.107Z,2.70
2018-01-17T19:44:40.408Z,2.80
2018-01-17T19:47:07.911Z,2.80
2018-01-17T19:49:35.449Z,2.80
2018-01-17T19:52:02.959Z,2.90
2018-01-17T19:54:31.239Z,2.90
2018-01-17T19:56:58.739Z,2.80
2018-01-17T19:59:26.274Z,2.80
2018-01-17T20:01:53.770Z,2.80
2018-01-17T20:04:21.288Z,2.70
2018-01-17T20:06:48.812Z,2.70
2018-01-17T20:09:16.321Z,2.70
2018-01-17T20:11:43.839Z,2.70
2018-01-17T20:14:11.360Z,2.70
2018-01-17T20:16:38.878Z,2.70
2018-01-17T20:19:07.139Z,2.70
2018-01-17T20:21:35.459Z,2.70
2018-01-17T20:24:03.726Z,2.70
2018-01-17T20:26:31.266Z,2.60
2018-01-17T20:28:59.531Z,2.70
2018-01-17T20:31:27.833Z,2.70
2018-01-17T20:33:55.352Z,2.70
2018-01-17T20:36:22.896Z,2.70
2018-01-17T20:38:50.399Z,2.80
2018-01-17T20:41:18.701Z,2.70
2018-01-17T20:43:46.198Z,2.70
2018-01-17T20:46:13.724Z,2.80
2018-01-17T20:48:41.243Z,2.80
2018-01-17T20:51:10.497Z,2.80
2018-01-17T20:53:38.028Z,2.80
2018-01-17T20:56:05.543Z,2.90
2018-01-17T20:58:33.086Z,2.90
2018-01-17T21:01:00.586Z,2.90
2018-01-17T21:03:28.108Z,2.90
2018-01-17T21:05:55.611Z,2.90
2018-01-17T21:08:23.153Z,2.80
2018-01-17T21:10:50.668Z,2.80
2018-01-17T21:13:18.186Z,2.70
2018-01-17T21:15:45.726Z,2.70
2018-01-17T21:18:14.011Z,2.80
2018-01-17T21:20:42.278Z,2.80
2018-01-17T21:23:10.574Z,2.80
2018-01-17T21:25:38.096Z,2.80
2018-01-17T21:28:05.637Z,2.80
2018-01-17T21:30:33.151Z,2.80
2018-01-17T21:33:00.663Z,2.90
2018-01-17T21:35:28.181Z,2.90
2018-01-17T21:37:55.673Z,2.80
2018-01-17T21:40:23.208Z,2.70
2018-01-17T21:42:56.308Z,2.70
2018-01-17T21:45:29.551Z,2.70
2018-01-17T21:47:57.831Z,2.50
2018-01-17T21:50:26.123Z,2.40
2018-01-17T21:52:53.648Z,2.40
2018-01-17T21:55:21.948Z,2.30
2018-01-17T21:57:49.479Z,2.30
2018-01-17T22:00:17.017Z,2.30
2018-01-17T22:02:44.533Z,2.30
2018-01-17T22:05:12.048Z,2.30
2018-01-17T22:07:39.567Z,2.30
2018-01-17T22:10:07.083Z,2.30
2018-01-17T22:12:35.348Z,2.40
2018-01-17T22:15:02.873Z,2.40
2018-01-17T22:17:30.384Z,2.50
2018-01-17T22:19:58.661Z,2.60
2018-01-17T22:22:26.957Z,2.60
2018-01-17T22:24:54.529Z,2.60
2018-01-17T22:27:22.014Z,2.50
2018-01-17T22:29:49.519Z,2.50
2018-01-17T22:32:17.050Z,2.50
2018-01-17T22:34:44.568Z,2.50
2018-01-17T22:37:12.086Z,2.50
2018-01-17T22:39:40.371Z,2.60
2018-01-17T22:42:07.914Z,2.60
2018-01-17T22:44:36.233Z,2.60
2018-01-17T22:47:03.737Z,2.60
2018-01-17T22:49:31.251Z,2.70
2018-01-17T22:51:58.785Z,2.70
2018-01-17T22:54:26.297Z,2.80
2018-01-17T22:56:53.828Z,2.80
2018-01-17T22:59:21.335Z,2.90
2018-01-17T23:01:49.617Z,3.00
2018-01-17T23:04:17.916Z,3.00
2018-01-17T23:06:45.414Z,3.00
2018-01-17T23:09:12.934Z,3.00
2018-01-17T23:11:40.450Z,3.00
2018-01-17T23:14:07.972Z,2.90
2018-01-17T23:16:35.490Z,2.90
2018-01-17T23:19:03.784Z,2.80
2018-01-17T23:21:31.286Z,2.80
2018-01-17T23:23:58.803Z,2.80
2018-01-17T23:26:26.322Z,2.80
2018-01-17T23:28:53.853Z,2.80
2018-01-17T23:31:21.349Z,2.70
2018-01-17T23:33:49.635Z,2.80
2018-01-17T23:36:17.893Z,2.70
2018-01-17T23:38:45.424Z,2.70
2018-01-17T23:41:12.925Z,2.70
2018-01-17T23:43:41.238Z,2.80
2018-01-17T23:46:08.749Z,2.80
2018-01-17T23:48:37.036Z,2.90
2018-01-17T23:51:05.342Z,2.90
2018-01-17T23:53:32.839Z,2.90
2018-01-17T23:56:00.356Z,2.90
2018-01-17T23:58:27.865Z,3.00
